Time;durP1;ratioP1;P1;durP2;ratioP2;P2;SDS_P1;SDS_P2;PMS_P1;PMS_P2;Temp;Humidity;BMP_temperature;BMP_pressure;BME280_temperature;BME280_humidity;BME280_pressure;Samples;Min_cycle;Max_cycle;Signal;HPM_P1;HPM_P2
2024/03/08 05:01:47;;;;;;;4.70;3.20;;;-0.50;97.30;;;;;;5477473;23;20507;-86
2024/03/08 05:04:15;;;;;;;6.17;3.23;;;-0.60;97.30;;;;;;4969335;28;20528;-83
2024/03/08 05:06:41;;;;;;;4.77;3.90;;;-0.60;97.30;;;;;;4966405;28;20430;-84
2024/03/08 05:09:13;;;;;;;5.07;4.10;;;-0.60;97.30;;;;;;4978751;28;20500;-85
2024/03/08 05:11:46;;;;;;;1.63;1.53;;;-0.60;97.30;;;;;;4964586;28;20201;-83
2024/03/08 05:14:19;;;;;;;5.07;4.00;;;-0.70;97.30;;;;;;4959406;28;20419;-84
2024/03/08 05:16:49;;;;;;;13.60;2.70;;;-0.70;97.30;;;;;;4962515;28;20450;-84
2024/03/08 05:19:19;;;;;;;3.13;2.80;;;-0.70;97.30;;;;;;4954422;28;20439;-83
2024/03/08 05:21:45;;;;;;;5.63;2.10;;;-0.70;97.30;;;;;;4978065;28;20434;-85
2024/03/08 05:24:13;;;;;;;5.07;3.10;;;-0.70;97.30;;;;;;4946776;28;20470;-79
2024/03/08 05:26:38;;;;;;;5.90;3.43;;;-0.80;97.30;;;;;;4951689;28;20910;-80
2024/03/08 05:29:04;;;;;;;3.60;2.30;;;-0.80;97.30;;;;;;4956546;28;20483;-81
2024/03/08 05:31:45;;;;;;;4.03;3.83;;;-0.80;97.30;;;;;;4958960;28;20222;-84
2024/03/08 05:34:10;;;;;;;1.87;1.77;;;-0.80;97.30;;;;;;4958468;28;20429;-84
2024/03/08 05:36:36;;;;;;;4.30;3.30;;;-0.80;97.30;;;;;;4948802;28;20497;-83
2024/03/08 05:39:02;;;;;;;2.17;2.00;;;-0.80;97.30;;;;;;4957138;28;20679;-84
2024/03/08 05:41:27;;;;;;;2.47;2.27;;;-0.80;97.30;;;;;;4985644;28;20210;-87
2024/03/08 05:43:53;;;;;;;3.23;2.87;;;-0.80;97.30;;;;;;4956889;28;20191;-86
2024/03/08 05:46:19;;;;;;;4.70;3.83;;;-0.90;97.30;;;;;;4962814;28;20216;-82
2024/03/08 05:48:45;;;;;;;3.97;3.63;;;-0.90;97.30;;;;;;4956151;28;20468;-84
2024/03/08 05:51:10;;;;;;;1.77;1.67;;;-0.90;97.30;;;;;;4962346;28;20205;-82
2024/03/08 05:53:36;;;;;;;9.43;3.93;;;-0.90;97.30;;;;;;4966157;28;20178;-84
2024/03/08 05:56:02;;;;;;;11.43;3.50;;;-0.90;97.30;;;;;;4961987;28;20190;-84
2024/03/08 05:58:30;;;;;;;5.53;5.23;;;-0.90;97.30;;;;;;4955536;28;20187;-83
2024/03/08 06:00:55;;;;;;;6.07;3.50;;;-0.80;97.30;;;;;;4955886;28;20475;-86
2024/03/08 06:03:21;;;;;;;2.13;1.63;;;-0.80;97.30;;;;;;4964359;28;20423;-88
2024/03/08 06:05:50;;;;;;;11.07;4.13;;;-0.80;97.30;;;;;;4971732;28;20502;-89
2024/03/08 06:08:16;;;;;;;2.67;2.40;;;-0.80;97.30;;;;;;4957730;28;20226;-80
2024/03/08 06:10:42;;;;;;;3.83;3.57;;;-0.80;97.30;;;;;;4964512;28;20433;-87
2024/03/08 06:13:07;;;;;;;5.40;3.20;;;-0.80;97.30;;;;;;4959873;28;20433;-88
2024/03/08 06:15:34;;;;;;;3.10;2.90;;;-0.80;97.30;;;;;;4974975;28;20190;-86
2024/03/08 06:18:00;;;;;;;3.10;2.93;;;-0.80;97.30;;;;;;4977069;28;20221;-87
2024/03/08 06:20:28;;;;;;;4.50;3.13;;;-0.70;97.30;;;;;;4977560;28;20421;-85
2024/03/08 06:22:53;;;;;;;4.97;2.77;;;-0.70;97.30;;;;;;4985662;28;20193;-85
2024/03/08 06:25:19;;;;;;;12.13;3.37;;;-0.60;97.30;;;;;;4961905;28;20545;-85
2024/03/08 06:27:47;;;;;;;12.50;3.30;;;-0.60;97.30;;;;;;4966131;28;20687;-81
2024/03/08 06:30:15;;;;;;;29.17;5.17;;;-0.60;97.30;;;;;;4962010;28;20183;-83
2024/03/08 06:32:42;;;;;;;4.07;3.57;;;-0.50;97.30;;;;;;4983509;23;20508;-85
2024/03/08 06:35:10;;;;;;;2.57;2.10;;;-0.50;97.30;;;;;;4977757;28;20440;-85
2024/03/08 06:37:35;;;;;;;2.57;2.37;;;-0.50;97.30;;;;;;4978356;28;20958;-85
2024/03/08 06:40:03;;;;;;;2.70;2.50;;;-0.40;97.30;;;;;;4978081;28;20806;-84
2024/03/08 06:42:29;;;;;;;8.10;4.00;;;-0.40;97.30;;;;;;4977958;28;20602;-85
2024/03/08 06:44:59;;;;;;;1.57;1.47;;;-0.30;97.30;;;;;;4988767;28;20451;-85
2024/03/08 06:47:25;;;;;;;18.03;5.43;;;-0.20;97.30;;;;;;4971516;28;20182;-84
2024/03/08 06:49:51;;;;;;;2.53;2.37;;;-0.20;97.30;;;;;;4993373;28;20465;-84
2024/03/08 06:52:17;;;;;;;3.00;2.43;;;-0.10;97.30;;;;;;4988651;28;20459;-85
2024/03/08 06:54:43;;;;;;;5.93;5.63;;;-0.10;97.30;;;;;;4964735;28;20426;-85
2024/03/08 06:57:10;;;;;;;3.20;3.00;;;0.00;97.30;;;;;;4973051;28;20235;-84
2024/03/08 06:59:36;;;;;;;8.33;5.30;;;0.00;97.30;;;;;;4979994;28;20667;-85
2024/03/08 07:02:02;;;;;;;3.00;2.80;;;0.10;97.30;;;;;;4992828;28;20447;-84
2024/03/08 07:04:29;;;;;;;2.10;1.97;;;0.10;97.30;;;;;;4976127;28;20204;-85
2024/03/08 07:06:55;;;;;;;3.70;3.07;;;0.20;97.30;;;;;;4968603;28;20440;-85
2024/03/08 07:09:21;;;;;;;4.87;3.07;;;0.30;97.30;;;;;;4967182;28;20812;-84
2024/03/08 07:11:46;;;;;;;6.00;3.83;;;0.40;97.30;;;;;;4970626;28;20472;-85
2024/03/08 07:14:15;;;;;;;4.70;4.40;;;0.50;97.30;;;;;;4983899;28;20723;-85
2024/03/08 07:16:41;;;;;;;5.40;4.00;;;0.60;97.30;;;;;;4970554;28;20423;-85
2024/03/08 07:19:07;;;;;;;4.90;4.60;;;0.70;97.30;;;;;;4973135;28;20425;-85
2024/03/08 07:21:32;;;;;;;4.80;2.73;;;0.80;97.30;;;;;;4991541;28;20716;-85
2024/03/08 07:24:09;;;;;;;6.10;3.70;;;0.90;97.30;;;;;;4967190;28;20212;-85
2024/03/08 07:26:35;;;;;;;9.37;5.10;;;1.00;97.30;;;;;;4980096;28;20663;-86
2024/03/08 07:29:00;;;;;;;4.30;4.00;;;1.10;97.30;;;;;;4967930;28;20548;-85
2024/03/08 07:33:53;;;;;;;3.23;3.07;;;1.10;97.30;;;;;;4993433;28;20229;-85
2024/03/08 07:36:19;;;;;;;3.50;2.20;;;1.30;97.30;;;;;;4971209;28;20183;-85
2024/03/08 07:38:46;;;;;;;12.33;7.40;;;1.40;97.30;;;;;;4964661;28;20422;-85
2024/03/08 07:41:12;;;;;;;4.60;3.80;;;1.40;97.30;;;;;;4970897;28;20288;-85
2024/03/08 07:43:38;;;;;;;4.40;4.10;;;1.50;97.30;;;;;;4964678;28;20495;-85
2024/03/08 07:46:04;;;;;;;5.13;2.87;;;1.60;97.30;;;;;;4976338;28;20417;-82
2024/03/08 07:48:30;;;;;;;11.63;5.13;;;1.60;97.30;;;;;;4976321;28;20301;-85
2024/03/08 07:50:56;;;;;;;8.33;5.10;;;1.70;97.30;;;;;;4987853;28;20597;-85
2024/03/08 07:53:21;;;;;;;4.53;3.37;;;1.70;97.30;;;;;;4965191;28;20610;-85
2024/03/08 07:55:47;;;;;;;7.73;4.40;;;1.90;97.30;;;;;;4981035;28;20193;-86
2024/03/08 07:58:13;;;;;;;15.43;5.03;;;1.90;97.30;;;;;;4967493;28;20209;-85
2024/03/08 08:00:39;;;;;;;7.63;6.60;;;1.80;97.30;;;;;;4980737;28;20232;-85
2024/03/08 08:03:05;;;;;;;5.80;4.70;;;1.90;97.30;;;;;;4961546;28;20932;-85
2024/03/08 08:05:35;;;;;;;6.53;5.50;;;2.00;97.30;;;;;;4962524;28;20178;-85
2024/03/08 08:08:06;;;;;;;5.23;4.03;;;2.10;97.30;;;;;;4982311;28;20631;-84
2024/03/08 08:10:33;;;;;;;7.60;6.53;;;2.10;97.30;;;;;;4977861;28;20459;-85
2024/03/08 08:12:59;;;;;;;4.93;4.63;;;2.20;97.30;;;;;;4966468;28;20445;-85
2024/03/08 08:15:24;;;;;;;6.87;3.37;;;2.20;97.30;;;;;;4989326;28;20492;-85
2024/03/08 08:17:51;;;;;;;18.67;5.93;;;2.30;97.30;;;;;;4968846;28;20289;-85
2024/03/08 08:20:18;;;;;;;8.93;5.77;;;2.40;97.30;;;;;;4971275;28;20615;-85
2024/03/08 08:22:44;;;;;;;3.90;3.73;;;2.50;97.30;;;;;;4991729;28;20865;-85
2024/03/08 08:25:12;;;;;;;3.70;3.17;;;2.60;97.30;;;;;;4992949;28;20420;-85
2024/03/08 08:27:39;;;;;;;5.87;5.57;;;2.80;97.30;;;;;;4972567;28;20417;-85
2024/03/08 08:30:08;;;;;;;9.73;4.47;;;2.90;97.30;;;;;;4967423;28;20461;-85
2024/03/08 08:32:35;;;;;;;15.53;6.63;;;3.00;97.30;;;;;;4956540;28;20531;-85
2024/03/08 08:35:02;;;;;;;2.93;2.73;;;3.10;97.30;;;;;;4974684;28;20445;-85
2024/03/08 08:37:28;;;;;;;3.57;3.37;;;3.30;97.30;;;;;;4975804;28;20945;-83
2024/03/08 08:39:54;;;;;;;5.90;4.07;;;3.40;97.30;;;;;;4979826;28;20421;-84
2024/03/08 08:42:19;;;;;;;5.77;5.07;;;3.40;97.30;;;;;;4966918;28;20535;-83
2024/03/08 08:44:46;;;;;;;8.13;5.67;;;3.40;97.30;;;;;;4969448;28;20224;-83
2024/03/08 08:47:12;;;;;;;7.77;4.80;;;3.50;97.30;;;;;;4964697;28;20717;-83
2024/03/08 08:49:38;;;;;;;8.50;4.27;;;3.70;97.30;;;;;;4981984;28;20552;-83
2024/03/08 08:52:05;;;;;;;4.53;3.40;;;3.80;97.30;;;;;;4975918;28;20532;-83
2024/03/08 08:54:31;;;;;;;5.43;4.90;;;3.90;97.30;;;;;;4976239;28;20185;-83
2024/03/08 08:56:57;;;;;;;4.53;3.77;;;4.10;97.30;;;;;;4973864;28;20424;-83
2024/03/08 08:59:25;;;;;;;3.03;2.83;;;4.10;97.30;;;;;;4971002;28;20174;-83
2024/03/08 09:01:53;;;;;;;3.87;3.67;;;4.20;97.30;;;;;;4968913;28;20441;-83
2024/03/08 09:04:19;;;;;;;21.03;6.03;;;4.40;97.30;;;;;;4969993;28;20436;-84
2024/03/08 09:06:44;;;;;;;13.13;7.03;;;4.60;97.30;;;;;;4974553;28;20410;-83
2024/03/08 09:09:13;;;;;;;12.43;5.70;;;4.70;97.30;;;;;;4974210;28;20681;-83
2024/03/08 09:11:42;;;;;;;4.97;3.20;;;4.80;97.30;;;;;;4959682;28;20267;-84
2024/03/08 09:14:08;;;;;;;3.47;3.27;;;4.90;97.30;;;;;;4965819;28;20942;-83
2024/03/08 09:16:34;;;;;;;8.53;7.87;;;5.00;97.30;;;;;;4974187;28;20421;-83
2024/03/08 09:18:59;;;;;;;3.63;3.47;;;5.10;97.30;;;;;;4974229;28;20432;-83
2024/03/08 09:21:27;;;;;;;5.10;4.10;;;5.10;97.30;;;;;;4966229;28;20192;-83
2024/03/08 09:23:52;;;;;;;9.13;4.73;;;5.10;97.30;;;;;;4966115;28;20237;-83
2024/03/08 09:26:18;;;;;;;4.13;3.90;;;5.30;97.30;;;;;;4991145;28;20429;-83
2024/03/08 09:28:45;;;;;;;3.70;3.50;;;5.40;97.30;;;;;;4973043;28;20208;-83
2024/03/08 09:31:11;;;;;;;12.83;6.50;;;5.50;97.30;;;;;;4984187;28;20804;-82
2024/03/08 09:33:37;;;;;;;16.63;6.23;;;5.60;97.30;;;;;;4966394;28;20469;-82
2024/03/08 09:36:03;;;;;;;10.43;4.30;;;5.60;97.30;;;;;;4973999;28;20950;-83
2024/03/08 09:38:29;;;;;;;4.37;3.40;;;5.60;97.30;;;;;;4975497;28;20299;-82
2024/03/08 09:40:56;;;;;;;6.60;5.03;;;5.70;97.30;;;;;;4972616;28;20421;-82
2024/03/08 09:43:24;;;;;;;4.33;3.63;;;5.70;97.30;;;;;;4968458;28;20454;-82
2024/03/08 09:45:51;;;;;;;10.43;6.17;;;5.80;97.30;;;;;;4962507;28;20434;-83
2024/03/08 09:48:18;;;;;;;17.23;6.80;;;5.80;97.30;;;;;;4960660;28;20488;-83
2024/03/08 09:50:44;;;;;;;11.00;7.27;;;5.90;97.30;;;;;;4986828;28;20502;-83
2024/03/08 09:53:11;;;;;;;8.20;6.77;;;6.10;97.30;;;;;;4971489;28;20491;-83
2024/03/08 09:55:42;;;;;;;2.77;2.40;;;6.20;97.30;;;;;;4962074;28;20417;-83
2024/03/08 09:58:17;;;;;;;10.20;5.57;;;6.30;97.30;;;;;;4958231;28;20851;-83
2024/03/08 10:00:43;;;;;;;15.00;6.27;;;6.40;97.30;;;;;;4983146;28;20488;-83
2024/03/08 10:03:08;;;;;;;8.10;4.93;;;6.40;97.30;;;;;;4966172;28;20647;-83
2024/03/08 10:05:34;;;;;;;11.40;4.63;;;6.40;97.30;;;;;;4963365;28;20241;-83
2024/03/08 10:08:00;;;;;;;5.73;4.60;;;6.50;97.30;;;;;;4971105;28;20189;-83
2024/03/08 10:10:26;;;;;;;5.60;4.27;;;6.60;97.30;;;;;;4959442;28;20178;-83
2024/03/08 10:12:52;;;;;;;10.63;4.83;;;6.60;97.30;;;;;;4969866;28;20711;-83
2024/03/08 10:15:17;;;;;;;12.73;6.70;;;6.80;97.30;;;;;;4965191;28;20681;-83
2024/03/08 10:17:43;;;;;;;7.37;3.73;;;6.90;97.30;;;;;;4990983;28;20421;-83
2024/03/08 10:20:18;;;;;;;4.37;3.50;;;6.90;97.30;;;;;;4991317;28;20189;-83
2024/03/08 10:22:44;;;;;;;7.47;4.83;;;7.20;97.30;;;;;;4964571;28;20198;-83
2024/03/08 10:25:11;;;;;;;7.23;3.43;;;7.40;97.30;;;;;;4966730;28;20516;-83
2024/03/08 10:27:39;;;;;;;10.17;3.77;;;7.50;96.60;;;;;;4966939;28;20450;-83
2024/03/08 10:30:08;;;;;;;7.60;3.80;;;7.70;96.70;;;;;;4985114;28;20530;-83
2024/03/08 10:32:34;;;;;;;4.20;3.50;;;7.80;96.20;;;;;;4963251;28;20472;-83
2024/03/08 10:34:59;;;;;;;10.63;6.53;;;7.90;96.30;;;;;;4966438;28;20410;-83
2024/03/08 10:37:28;;;;;;;3.63;3.50;;;8.00;94.70;;;;;;4959529;28;20179;-83
2024/03/08 10:40:10;;;;;;;6.60;5.27;;;8.10;94.70;;;;;;4963742;28;20185;-84
2024/03/08 10:42:42;;;;;;;6.10;3.97;;;8.20;93.50;;;;;;4963731;28;20553;-83
2024/03/08 10:45:21;;;;;;;13.67;6.60;;;8.20;93.20;;;;;;4965784;28;20500;-83
2024/03/08 10:47:49;;;;;;;6.87;3.40;;;8.30;93.50;;;;;;4965942;28;20488;-83
2024/03/08 10:50:22;;;;;;;12.30;4.03;;;8.50;94.40;;;;;;4971786;28;20430;-84
2024/03/08 10:52:51;;;;;;;7.97;3.73;;;8.60;94.00;;;;;;4978180;28;21101;-83
2024/03/08 10:55:20;;;;;;;15.70;8.90;;;8.80;94.20;;;;;;4960772;28;20484;-83
2024/03/08 10:57:49;;;;;;;19.43;8.73;;;8.90;92.30;;;;;;4962022;28;20525;-83
2024/03/08 11:00:16;;;;;;;12.93;4.80;;;8.90;91.80;;;;;;4969802;28;20410;-83
2024/03/08 11:02:45;;;;;;;11.70;6.40;;;8.90;92.30;;;;;;4970830;28;20491;-83
2024/03/08 11:05:15;;;;;;;20.00;6.13;;;9.00;92.30;;;;;;4973207;28;20422;-83
2024/03/08 11:07:42;;;;;;;10.40;6.03;;;9.00;92.10;;;;;;4973480;28;20517;-83
2024/03/08 11:10:19;;;;;;;10.33;5.37;;;9.00;92.00;;;;;;4965795;28;20465;-83
2024/03/08 11:12:47;;;;;;;8.50;4.47;;;8.90;92.10;;;;;;4973610;28;20457;-83
2024/03/08 11:15:19;;;;;;;10.40;7.80;;;8.90;91.70;;;;;;4969472;28;20475;-83
2024/03/08 11:17:47;;;;;;;6.07;4.43;;;8.90;91.70;;;;;;4961763;28;20414;-83
2024/03/08 11:20:18;;;;;;;9.03;5.37;;;9.00;92.30;;;;;;4965880;28;20430;-83
2024/03/08 11:22:54;;;;;;;5.30;5.03;;;9.20;92.60;;;;;;4973051;28;20448;-83
2024/03/08 11:25:32;;;;;;;4.13;3.90;;;9.30;91.40;;;;;;4973218;28;20529;-83
2024/03/08 11:28:19;;;;;;;7.13;4.97;;;9.50;92.20;;;;;;4962482;28;20512;-83
2024/03/08 11:30:58;;;;;;;16.83;6.40;;;9.70;91.60;;;;;;4970772;28;20445;-83
2024/03/08 11:33:26;;;;;;;3.53;2.27;;;9.70;90.50;;;;;;4970151;28;20830;-83
2024/03/08 11:35:52;;;;;;;9.37;5.50;;;9.70;90.60;;;;;;4970501;28;20561;-84
2024/03/08 11:38:19;;;;;;;9.23;7.40;;;9.60;90.70;;;;;;4966717;28;21181;-83
2024/03/08 11:40:49;;;;;;;4.57;4.27;;;9.90;91.50;;;;;;4966804;28;20186;-83
2024/03/08 11:43:16;;;;;;;10.47;6.97;;;10.00;89.00;;;;;;4965757;28;20496;-83
2024/03/08 11:45:41;;;;;;;16.47;6.50;;;10.00;87.90;;;;;;4969398;28;20422;-84
2024/03/08 11:48:07;;;;;;;13.63;5.63;;;9.90;88.20;;;;;;4971350;28;20772;-83
2024/03/08 11:50:33;;;;;;;4.90;3.13;;;10.00;89.40;;;;;;4967843;28;20244;-84
2024/03/08 11:53:03;;;;;;;14.80;5.27;;;10.20;89.00;;;;;;4967860;28;20198;-84
2024/03/08 11:55:30;;;;;;;6.10;4.57;;;10.30;88.80;;;;;;4967582;28;20171;-84
2024/03/08 11:58:03;;;;;;;2.80;2.70;;;10.30;88.80;;;;;;4972255;28;20867;-84
2024/03/08 12:00:35;;;;;;;5.70;4.37;;;10.20;88.70;;;;;;4969201;28;20418;-84
2024/03/08 12:03:09;;;;;;;9.27;5.90;;;10.30;88.60;;;;;;4972454;28;20460;-84
2024/03/08 12:05:35;;;;;;;14.87;6.80;;;10.10;87.70;;;;;;4962316;28;20426;-84
2024/03/08 12:08:07;;;;;;;6.43;5.67;;;10.00;88.50;;;;;;4967546;28;20421;-85
2024/03/08 12:10:33;;;;;;;20.77;9.17;;;10.10;88.60;;;;;;4967197;28;20446;-83
2024/03/08 12:12:59;;;;;;;16.40;7.37;;;10.40;88.80;;;;;;4965199;28;20442;-84
2024/03/08 12:15:25;;;;;;;5.07;3.80;;;10.50;87.40;;;;;;4968436;28;20422;-83
2024/03/08 12:17:52;;;;;;;16.47;7.57;;;10.50;87.60;;;;;;4971953;28;20561;-84
2024/03/08 12:20:22;;;;;;;14.10;6.97;;;10.40;87.70;;;;;;4971854;28;20529;-84
2024/03/08 12:22:50;;;;;;;7.93;5.83;;;10.50;88.10;;;;;;4971989;28;20959;-83
2024/03/08 12:25:16;;;;;;;8.37;5.10;;;10.80;87.70;;;;;;4967816;28;20428;-83
2024/03/08 12:27:42;;;;;;;9.50;4.33;;;11.10;87.30;;;;;;4971242;28;20480;-84
2024/03/08 12:30:22;;;;;;;5.07;3.37;;;11.20;86.90;;;;;;4969963;28;20508;-84
2024/03/08 12:32:52;;;;;;;15.50;5.87;;;11.30;86.80;;;;;;4971574;28;20572;-84
2024/03/08 12:35:21;;;;;;;10.07;5.70;;;11.20;85.80;;;;;;4966156;28;20508;-84
2024/03/08 12:37:49;;;;;;;9.03;4.80;;;10.90;86.10;;;;;;4967586;28;20445;-84
2024/03/08 12:40:16;;;;;;;6.93;3.93;;;10.80;86.80;;;;;;4968311;28;20516;-84
2024/03/08 12:42:43;;;;;;;6.10;5.60;;;11.00;87.40;;;;;;4968476;28;20454;-84
2024/03/08 12:45:10;;;;;;;17.73;5.10;;;11.20;86.60;;;;;;4969343;28;20440;-84
2024/03/08 12:47:35;;;;;;;9.77;4.83;;;11.40;86.90;;;;;;4971819;28;20962;-84
2024/03/08 12:50:03;;;;;;;11.43;6.63;;;11.60;86.60;;;;;;4968112;28;20453;-84
2024/03/08 12:52:30;;;;;;;6.37;5.37;;;11.50;85.70;;;;;;4964951;28;20214;-84
2024/03/08 12:54:55;;;;;;;9.50;7.07;;;11.70;85.50;;;;;;4967265;28;20438;-84
2024/03/08 12:57:21;;;;;;;8.63;5.90;;;11.70;85.20;;;;;;4968286;28;20437;-84
2024/03/08 12:59:46;;;;;;;10.50;5.00;;;11.50;85.10;;;;;;4967838;28;20196;-84
2024/03/08 13:02:12;;;;;;;7.63;5.03;;;11.50;85.70;;;;;;4970809;28;20210;-84
2024/03/08 13:04:37;;;;;;;4.90;4.60;;;11.60;86.00;;;;;;4965136;28;20179;-84
2024/03/08 13:07:03;;;;;;;28.80;5.70;;;11.90;85.30;;;;;;4971674;28;20198;-84
2024/03/08 13:09:29;;;;;;;16.23;6.30;;;12.10;84.70;;;;;;4994571;23;20213;-86
2024/03/08 13:12:29;;;;;;;17.77;7.30;;;12.20;84.60;;;;;;4977424;28;20248;-87
2024/03/08 13:15:00;;;;;;;16.77;8.40;;;12.40;84.30;;;;;;4973535;28;20178;-87
2024/03/08 13:17:40;;;;;;;10.53;3.90;;;12.50;84.00;;;;;;4985072;28;20452;-87
2024/03/08 13:20:09;;;;;;;7.00;4.20;;;12.50;83.90;;;;;;4973486;23;20511;-68
2024/03/08 13:22:36;;;;;;;17.57;7.80;;;12.40;83.70;;;;;;4972854;28;20424;-68
2024/03/08 13:25:02;;;;;;;10.90;6.50;;;12.50;83.90;;;;;;4989906;28;20421;-69
2024/03/08 13:27:28;;;;;;;6.23;4.90;;;12.40;83.50;;;;;;4971365;28;20457;-67
2024/03/08 13:29:54;;;;;;;8.20;4.70;;;12.50;83.60;;;;;;4989320;28;20823;-68
2024/03/08 13:32:20;;;;;;;7.63;5.50;;;12.70;83.00;;;;;;4968974;28;20444;-67
2024/03/08 13:34:47;;;;;;;12.23;5.37;;;12.60;82.60;;;;;;4986758;28;20224;-67
2024/03/08 13:37:15;;;;;;;6.50;4.57;;;12.70;83.50;;;;;;4982167;28;20515;-67
2024/03/08 13:39:43;;;;;;;9.17;5.17;;;12.80;82.60;;;;;;4986590;28;20431;-68
2024/03/08 13:42:12;;;;;;;8.27;6.10;;;13.00;82.20;;;;;;4986674;28;20452;-68
2024/03/08 13:44:39;;;;;;;26.60;6.53;;;12.90;81.50;;;;;;4986826;28;20434;-69
2024/03/08 13:47:05;;;;;;;11.73;5.00;;;12.70;82.40;;;;;;4988586;28;20420;-68
2024/03/08 13:49:31;;;;;;;12.10;5.80;;;12.70;81.70;;;;;;4981527;28;20484;-68
2024/03/08 13:51:58;;;;;;;6.70;3.40;;;12.70;81.90;;;;;;4989082;28;20198;-69
2024/03/08 13:54:24;;;;;;;4.13;3.90;;;12.60;81.50;;;;;;4971511;28;20425;-68
2024/03/08 13:56:52;;;;;;;12.30;6.73;;;12.50;82.20;;;;;;4971967;28;20673;-68
2024/03/08 13:59:18;;;;;;;11.47;4.43;;;12.70;82.00;;;;;;4971729;28;20181;-68
2024/03/08 14:01:43;;;;;;;12.20;6.73;;;12.90;81.40;;;;;;4989582;28;20437;-68
2024/03/08 14:04:09;;;;;;;7.03;4.57;;;12.90;81.30;;;;;;4971685;28;20442;-68
2024/03/08 14:06:35;;;;;;;8.50;5.63;;;12.90;81.00;;;;;;4971925;28;20186;-69
2024/03/08 14:09:01;;;;;;;11.70;5.97;;;12.80;81.40;;;;;;4989545;28;20624;-68
2024/03/08 14:11:27;;;;;;;14.50;6.03;;;12.80;81.20;;;;;;4971708;28;20223;-68
2024/03/08 14:13:53;;;;;;;6.20;5.80;;;12.80;81.20;;;;;;4989410;28;20471;-67
2024/03/08 14:16:19;;;;;;;7.13;4.23;;;12.70;81.20;;;;;;4989178;28;20838;-67
2024/03/08 14:18:44;;;;;;;10.27;4.80;;;12.60;81.70;;;;;;4973681;28;20182;-68
2024/03/08 14:21:10;;;;;;;10.77;5.87;;;12.70;81.30;;;;;;4988900;28;20944;-68
2024/03/08 14:23:36;;;;;;;7.43;4.87;;;12.60;82.20;;;;;;4972850;28;20218;-67
2024/03/08 14:26:04;;;;;;;9.77;6.73;;;12.70;81.60;;;;;;4988899;28;20256;-67
2024/03/08 14:28:29;;;;;;;8.03;4.70;;;13.00;81.20;;;;;;4988394;28;20241;-68
2024/03/08 14:30:55;;;;;;;8.13;4.90;;;13.20;81.00;;;;;;4989271;28;20860;-68
2024/03/08 14:33:20;;;;;;;15.00;9.13;;;13.20;81.00;;;;;;4989420;28;20189;-67
2024/03/08 14:35:47;;;;;;;18.97;6.93;;;13.30;80.80;;;;;;4993185;28;20240;-67
2024/03/08 14:38:12;;;;;;;14.97;10.00;;;13.30;80.40;;;;;;4987124;28;20342;-67
2024/03/08 14:40:38;;;;;;;5.73;4.70;;;13.00;80.70;;;;;;4993716;28;20811;-68
2024/03/08 14:43:05;;;;;;;9.23;4.87;;;13.00;81.00;;;;;;4993484;28;20178;-68
2024/03/08 14:45:31;;;;;;;9.73;4.70;;;13.00;81.10;;;;;;4993085;28;20185;-68
2024/03/08 14:47:57;;;;;;;12.30;5.87;;;13.10;81.00;;;;;;4992242;28;20560;-68
2024/03/08 14:50:24;;;;;;;9.43;5.20;;;13.10;81.10;;;;;;4992885;28;22143;-68
2024/03/08 14:52:50;;;;;;;11.73;5.47;;;13.30;81.40;;;;;;4974941;28;20428;-68
2024/03/08 14:55:16;;;;;;;7.57;5.30;;;13.50;81.80;;;;;;4992794;28;20503;-68
2024/03/08 14:57:45;;;;;;;8.10;4.67;;;13.40;80.00;;;;;;4992532;28;20413;-69
2024/03/08 15:00:16;;;;;;;7.13;4.37;;;13.40;80.50;;;;;;4992616;28;20752;-68
2024/03/08 15:02:43;;;;;;;15.17;6.70;;;13.40;81.10;;;;;;4977119;28;20938;-68
2024/03/08 15:05:11;;;;;;;8.13;5.13;;;13.80;80.50;;;;;;4992570;28;20424;-68
2024/03/08 15:07:38;;;;;;;6.00;4.97;;;13.80;80.60;;;;;;4973151;28;20414;-68
2024/03/08 15:10:11;;;;;;;8.27;4.13;;;13.70;80.30;;;;;;4981125;28;20492;-68
2024/03/08 15:12:39;;;;;;;13.63;5.30;;;13.60;79.60;;;;;;4973090;28;20448;-68
2024/03/08 15:15:08;;;;;;;11.70;6.07;;;13.30;80.30;;;;;;4980893;28;20425;-68
2024/03/08 15:17:34;;;;;;;13.63;5.47;;;13.20;80.30;;;;;;4981056;28;20982;-68
2024/03/08 15:20:00;;;;;;;5.33;4.07;;;13.10;81.00;;;;;;4972835;28;20532;-68
2024/03/08 15:22:27;;;;;;;5.47;4.73;;;13.20;80.80;;;;;;4973749;28;20446;-68
2024/03/08 15:24:52;;;;;;;8.93;4.23;;;13.50;80.60;;;;;;4978984;28;20419;-68
2024/03/08 15:27:18;;;;;;;5.33;4.27;;;13.60;80.20;;;;;;4955325;28;20491;-68
2024/03/08 15:29:48;;;;;;;11.87;5.43;;;13.70;80.20;;;;;;4947650;28;20225;-68
2024/03/08 15:32:19;;;;;;;17.27;5.73;;;13.60;80.40;;;;;;4972761;28;20958;-67
2024/03/08 15:34:45;;;;;;;9.00;5.47;;;13.30;80.50;;;;;;4947577;28;20416;-68
2024/03/08 15:37:15;;;;;;;9.43;6.50;;;13.30;80.90;;;;;;4952617;28;20435;-67
2024/03/08 15:39:40;;;;;;;4.33;3.03;;;13.30;80.50;;;;;;4972825;28;20454;-68
2024/03/08 15:42:06;;;;;;;10.90;5.43;;;13.50;80.40;;;;;;4972218;28;20576;-68
2024/03/08 15:44:32;;;;;;;7.57;5.13;;;13.60;80.20;;;;;;4967892;28;20425;-69
2024/03/08 15:46:57;;;;;;;19.00;8.30;;;13.70;80.10;;;;;;4948756;28;20587;-68
2024/03/08 15:49:26;;;;;;;8.50;4.30;;;13.60;80.20;;;;;;4979569;28;20232;-68
2024/03/08 15:51:51;;;;;;;3.43;3.27;;;13.60;80.50;;;;;;4972240;28;20199;-69
2024/03/08 15:54:17;;;;;;;7.33;4.30;;;13.80;80.40;;;;;;4980411;28;20421;-68
2024/03/08 15:56:43;;;;;;;8.30;6.33;;;14.00;79.40;;;;;;4980769;28;20200;-68
2024/03/08 15:59:08;;;;;;;17.20;7.23;;;14.00;79.70;;;;;;4979178;28;20189;-68
2024/03/08 16:01:34;;;;;;;7.57;4.37;;;13.80;79.70;;;;;;4964102;28;20529;-68
2024/03/08 16:03:59;;;;;;;10.00;4.60;;;13.80;79.80;;;;;;4962968;28;20178;-68
2024/03/08 16:06:25;;;;;;;12.27;6.27;;;13.80;80.10;;;;;;4963380;28;20217;-68
2024/03/08 16:08:51;;;;;;;10.87;5.60;;;13.80;80.30;;;;;;4961424;28;20214;-68
2024/03/08 16:11:18;;;;;;;9.87;4.07;;;13.40;81.00;;;;;;4964291;28;20207;-68
2024/03/08 16:13:44;;;;;;;8.20;3.83;;;13.30;81.40;;;;;;4963988;28;20210;-68
2024/03/08 16:16:09;;;;;;;13.23;5.40;;;13.20;81.60;;;;;;4971865;28;20503;-69
2024/03/08 16:18:37;;;;;;;5.77;4.13;;;13.00;81.70;;;;;;4971787;28;20676;-69
2024/03/08 16:21:03;;;;;;;9.67;5.73;;;12.40;82.60;;;;;;4971670;28;20714;-69
2024/03/08 16:23:29;;;;;;;13.93;6.40;;;11.90;83.90;;;;;;4962271;28;20454;-69
2024/03/08 16:25:55;;;;;;;6.33;4.40;;;11.20;85.30;;;;;;4954002;28;21127;-69
2024/03/08 16:28:27;;;;;;;10.50;4.23;;;10.70;86.80;;;;;;4972001;28;20553;-69
2024/03/08 16:30:56;;;;;;;16.13;6.00;;;10.30;87.80;;;;;;4975248;28;20322;-69
2024/03/08 16:33:22;;;;;;;4.87;2.87;;;10.00;88.80;;;;;;4970531;28;20504;-70
2024/03/08 16:35:49;;;;;;;6.23;5.07;;;9.70;89.60;;;;;;4973836;28;20429;-69
2024/03/08 16:38:16;;;;;;;10.37;5.13;;;9.50;90.00;;;;;;4971316;28;20425;-69
2024/03/08 16:40:43;;;;;;;5.50;4.60;;;9.30;90.50;;;;;;4951358;28;20458;-69
2024/03/08 16:43:11;;;;;;;5.23;3.90;;;9.20;90.50;;;;;;4955778;28;20460;-69
2024/03/08 16:45:40;;;;;;;7.20;3.50;;;9.10;90.90;;;;;;4967237;28;20797;-69
2024/03/08 16:48:07;;;;;;;9.03;4.80;;;9.00;91.00;;;;;;4967268;28;20473;-70
2024/03/08 16:50:33;;;;;;;8.33;5.37;;;8.90;91.10;;;;;;4960901;28;20541;-70
2024/03/08 16:52:59;;;;;;;8.20;5.23;;;8.80;91.60;;;;;;4961394;28;20414;-69
2024/03/08 16:55:25;;;;;;;8.80;4.47;;;8.70;91.70;;;;;;4950404;28;20429;-69
2024/03/08 16:57:51;;;;;;;8.37;5.10;;;8.60;92.20;;;;;;4963226;28;20428;-69
2024/03/08 17:00:18;;;;;;;4.90;4.27;;;8.50;92.40;;;;;;4971147;28;20906;-70
2024/03/08 17:02:49;;;;;;;7.13;6.73;;;8.40;92.80;;;;;;4944732;28;20182;-69
2024/03/08 17:05:16;;;;;;;4.00;3.30;;;8.30;93.00;;;;;;4935690;28;20427;-69
2024/03/08 17:07:44;;;;;;;4.43;4.13;;;8.30;93.10;;;;;;4961125;28;20475;-70
2024/03/08 17:10:14;;;;;;;5.13;2.50;;;8.20;93.30;;;;;;4947755;28;20575;-69
2024/03/08 17:12:44;;;;;;;8.60;2.93;;;8.10;93.50;;;;;;4956436;28;20454;-69
2024/03/08 17:15:11;;;;;;;7.23;3.07;;;8.00;93.70;;;;;;4953256;28;20421;-69
2024/03/08 17:17:38;;;;;;;9.43;3.20;;;7.90;93.90;;;;;;4963565;28;20418;-69
2024/03/08 17:20:07;;;;;;;5.97;3.57;;;7.90;93.90;;;;;;4959485;28;20556;-69
2024/03/08 17:22:33;;;;;;;4.67;2.70;;;7.80;93.90;;;;;;4970262;28;20418;-69
2024/03/08 17:24:59;;;;;;;8.40;4.33;;;7.70;94.10;;;;;;4969824;28;20434;-69
2024/03/08 17:27:25;;;;;;;8.73;4.70;;;7.70;94.20;;;;;;4970094;28;20737;-68
2024/03/08 17:29:51;;;;;;;7.87;3.27;;;7.70;94.20;;;;;;4970058;28;20736;-70
2024/03/08 17:32:18;;;;;;;5.67;2.90;;;7.60;94.30;;;;;;4970023;28;20430;-69
2024/03/08 17:34:43;;;;;;;3.90;3.63;;;7.50;94.60;;;;;;4969876;28;20473;-69
2024/03/08 17:37:10;;;;;;;12.23;6.43;;;7.50;94.60;;;;;;4967698;28;20418;-69
2024/03/08 17:39:38;;;;;;;6.20;2.70;;;7.40;94.90;;;;;;4967216;28;20181;-70
2024/03/08 17:42:04;;;;;;;5.17;4.90;;;7.30;94.90;;;;;;4969733;28;20504;-69
2024/03/08 17:44:30;;;;;;;2.20;2.03;;;7.30;95.00;;;;;;4969435;28;20934;-69
2024/03/08 17:46:55;;;;;;;6.00;3.17;;;7.30;95.10;;;;;;4969599;28;20468;-69
2024/03/08 17:49:22;;;;;;;4.27;3.97;;;7.30;95.20;;;;;;4965968;28;20462;-69
2024/03/08 17:51:49;;;;;;;11.73;3.07;;;7.20;95.40;;;;;;4969047;28;20226;-69